Time;durP1;ratioP1;P1;durP2;ratioP2;P2;SDS_P1;SDS_P2;PMS_P1;PMS_P2;Temp;Humidity;BMP_temperature;BMP_pressure;BME280_temperature;BME280_humidity;BME280_pressure;Samples;Min_cycle;Max_cycle;Signal;HPM_P1;HPM_P2
2022/11/29 00:00:57;;;;;;;108.75;27.98;;;8.80;99.90;;;;;;4818497;29;20099;-81
2022/11/29 00:03:23;;;;;;;108.10;25.98;;;8.90;99.90;;;;;;4821058;29;20041;-81
2022/11/29 00:05:50;;;;;;;116.68;27.05;;;8.90;99.90;;;;;;4821367;29;20450;-81
2022/11/29 00:08:16;;;;;;;119.78;27.95;;;8.90;99.90;;;;;;4823535;29;20050;-82
2022/11/29 00:10:42;;;;;;;101.88;27.17;;;8.90;99.90;;;;;;4825006;29;20046;-82
2022/11/29 00:13:07;;;;;;;117.65;25.70;;;8.80;99.90;;;;;;4823612;29;20498;-81
2022/11/29 00:15:37;;;;;;;84.72;23.60;;;8.80;99.90;;;;;;4823769;29;20445;-81
2022/11/29 00:18:04;;;;;;;125.55;27.65;;;8.80;99.90;;;;;;4820685;29;20064;-81
2022/11/29 00:20:30;;;;;;;130.00;28.88;;;8.90;99.90;;;;;;4823065;29;20395;-82
2022/11/29 00:22:55;;;;;;;123.40;28.48;;;8.80;99.90;;;;;;4822289;29;20101;-81
2022/11/29 00:25:21;;;;;;;120.40;28.90;;;8.80;99.90;;;;;;4824214;29;20613;-81
2022/11/29 00:27:46;;;;;;;120.45;28.85;;;8.90;99.90;;;;;;4823313;29;20057;-81
2022/11/29 00:30:12;;;;;;;103.35;27.48;;;8.90;99.90;;;;;;4804609;29;20057;-81
2022/11/29 00:32:38;;;;;;;104.55;27.67;;;9.00;99.90;;;;;;4821428;29;20038;-82
2022/11/29 00:35:04;;;;;;;153.65;28.13;;;8.90;99.90;;;;;;4823255;29;20138;-81
2022/11/29 00:37:30;;;;;;;114.95;27.45;;;8.90;99.90;;;;;;4838209;29;20038;-81
2022/11/29 00:39:55;;;;;;;82.60;25.75;;;9.30;99.90;;;;;;4821935;29;20053;-81
2022/11/29 00:42:21;;;;;;;84.63;25.60;;;8.90;99.90;;;;;;4822654;29;20061;-81
2022/11/29 00:44:46;;;;;;;181.90;29.73;;;8.90;99.90;;;;;;4802809;29;20057;-82
2022/11/29 00:47:12;;;;;;;103.35;26.55;;;8.80;99.90;;;;;;4820639;29;20046;-81
2022/11/29 00:49:37;;;;;;;133.25;29.52;;;8.80;99.90;;;;;;4822438;29;20045;-81
2022/11/29 00:52:03;;;;;;;156.90;27.63;;;8.90;99.90;;;;;;4823648;29;20199;-82
2022/11/29 00:54:29;;;;;;;114.47;26.80;;;8.90;99.90;;;;;;4821367;29;20057;-82
2022/11/29 00:56:55;;;;;;;103.15;26.45;;;8.90;99.90;;;;;;4798999;29;20042;-81
2022/11/29 00:59:20;;;;;;;107.75;27.00;;;8.90;99.90;;;;;;4821731;29;20072;-81
2022/11/29 01:01:46;;;;;;;107.78;25.33;;;8.90;99.90;;;;;;4802493;29;20060;-81
2022/11/29 01:04:12;;;;;;;85.60;25.20;;;8.90;99.90;;;;;;4822702;29;20050;-81
2022/11/29 01:06:37;;;;;;;93.57;25.42;;;8.80;99.90;;;;;;4823074;29;20129;-81
2022/11/29 01:09:03;;;;;;;94.07;25.67;;;8.80;99.90;;;;;;4825724;29;20048;-81
2022/11/29 01:11:29;;;;;;;122.20;27.05;;;8.80;99.90;;;;;;4828231;29;20126;-81
2022/11/29 01:13:58;;;;;;;71.50;24.02;;;8.80;99.90;;;;;;4841441;29;20094;-81
2022/11/29 01:16:25;;;;;;;70.75;23.50;;;8.80;99.90;;;;;;4825237;29;20090;-82
2022/11/29 01:18:50;;;;;;;62.42;22.85;;;8.80;99.90;;;;;;4826351;29;20407;-81
2022/11/29 01:21:19;;;;;;;59.00;21.55;;;8.80;99.90;;;;;;4823945;29;20050;-81
2022/11/29 01:23:45;;;;;;;81.97;24.27;;;8.70;99.90;;;;;;4827603;29;20834;-81
2022/11/29 01:26:17;;;;;;;86.05;25.60;;;8.80;99.90;;;;;;4825511;29;20466;-81
2022/11/29 01:28:45;;;;;;;138.15;27.25;;;8.80;99.90;;;;;;4824658;29;20042;-81
2022/11/29 01:31:13;;;;;;;82.38;26.08;;;8.80;99.90;;;;;;4826052;29;20049;-81
2022/11/29 01:33:39;;;;;;;80.00;23.40;;;8.80;99.90;;;;;;4824610;29;20055;-82
2022/11/29 01:36:06;;;;;;;73.60;23.88;;;8.70;99.90;;;;;;4824828;29;20053;-81
2022/11/29 01:38:32;;;;;;;61.80;23.75;;;8.70;99.90;;;;;;4826071;29;20090;-81
2022/11/29 01:40:59;;;;;;;69.55;25.73;;;8.70;99.90;;;;;;4840574;29;20042;-81
2022/11/29 01:43:24;;;;;;;108.85;27.30;;;8.70;99.90;;;;;;4824785;29;20042;-81
2022/11/29 01:45:50;;;;;;;96.95;26.42;;;8.70;99.90;;;;;;4824552;29;20577;-81
2022/11/29 01:48:17;;;;;;;93.00;25.50;;;8.60;99.90;;;;;;4823707;29;20050;-81
2022/11/29 01:50:42;;;;;;;85.45;24.98;;;8.70;99.90;;;;;;4804049;29;20612;-81
2022/11/29 01:53:12;;;;;;;68.40;22.63;;;8.60;99.90;;;;;;4839014;29;20054;-81
2022/11/29 01:55:44;;;;;;;71.95;24.73;;;8.60;99.90;;;;;;4824901;29;20125;-81
2022/11/29 01:58:11;;;;;;;60.10;22.70;;;9.20;99.90;;;;;;4839792;29;20060;-81
2022/11/29 02:00:36;;;;;;;73.80;24.85;;;8.60;99.90;;;;;;4821230;29;20038;-81
2022/11/29 02:03:11;;;;;;;80.25;23.95;;;8.60;99.90;;;;;;4821831;29;20094;-82
2022/11/29 02:05:39;;;;;;;97.10;26.85;;;8.60;99.90;;;;;;4839991;29;20038;-81
2022/11/29 02:08:07;;;;;;;76.50;22.63;;;8.60;99.90;;;;;;4818420;29;20048;-81
2022/11/29 02:10:53;;;;;;;77.97;25.45;;;8.60;99.90;;;;;;4804863;29;20099;-82
2022/11/29 02:13:56;;;;;;;99.80;25.98;;;8.60;99.90;;;;;;4824576;29;20064;-82
2022/11/29 02:16:59;;;;;;;73.32;24.67;;;8.60;99.90;;;;;;4825152;29;20054;-82
2022/11/29 02:19:43;;;;;;;78.63;26.15;;;8.60;99.90;;;;;;4825375;29;20049;-81
2022/11/29 02:22:19;;;;;;;85.07;25.65;;;8.60;99.90;;;;;;4839183;29;20127;-82
2022/11/29 02:25:11;;;;;;;88.40;24.73;;;8.60;99.90;;;;;;4822454;29;20034;-81
2022/11/29 02:28:16;;;;;;;103.93;25.50;;;8.60;99.90;;;;;;4837732;29;20049;-81
2022/11/29 02:31:19;;;;;;;80.95;24.63;;;8.60;99.90;;;;;;4823829;29;20053;-82
2022/11/29 02:34:18;;;;;;;106.95;25.20;;;8.60;99.90;;;;;;4824997;29;20521;-81
2022/11/29 02:37:01;;;;;;;72.43;22.77;;;8.50;99.90;;;;;;4824503;29;20037;-81
2022/11/29 02:39:49;;;;;;;59.38;21.38;;;8.50;99.90;;;;;;4814111;29;20050;-81
2022/11/29 02:42:31;;;;;;;101.00;24.40;;;8.50;99.90;;;;;;4825865;29;20532;-81
2022/11/29 02:45:38;;;;;;;54.78;20.83;;;8.50;99.90;;;;;;4824933;29;20133;-83
2022/11/29 02:48:26;;;;;;;67.25;20.50;;;8.50;99.90;;;;;;4822276;29;20046;-81
2022/11/29 02:51:21;;;;;;;46.38;17.95;;;8.40;99.90;;;;;;4824432;29;20386;-81
2022/11/29 02:54:15;;;;;;;50.92;18.60;;;8.50;99.90;;;;;;4800878;29;20054;-81
2022/11/29 02:56:52;;;;;;;57.80;19.38;;;8.40;99.90;;;;;;4836790;29;20132;-81
2022/11/29 02:59:40;;;;;;;101.68;21.73;;;8.40;99.90;;;;;;4825098;29;20776;-81
2022/11/29 03:02:29;;;;;;;90.53;19.83;;;8.40;99.90;;;;;;4822424;29;20053;-81
2022/11/29 03:05:32;;;;;;;78.70;19.60;;;8.30;99.90;;;;;;4785677;29;20050;-81
2022/11/29 03:08:16;;;;;;;100.88;20.25;;;8.40;99.90;;;;;;4823780;29;20038;-81
2022/11/29 03:10:54;;;;;;;64.10;17.23;;;8.30;99.90;;;;;;4824397;29;20049;-82
2022/11/29 03:13:36;;;;;;;69.53;19.15;;;9.20;99.90;;;;;;4837696;29;20045;-82
2022/11/29 03:16:17;;;;;;;65.90;19.38;;;8.20;99.90;;;;;;4823898;29;20061;-83
2022/11/29 03:19:04;;;;;;;55.03;18.45;;;8.20;99.90;;;;;;4823522;29;20045;-81
2022/11/29 03:22:21;;;;;;;110.53;21.40;;;8.20;99.90;;;;;;4823526;29;20084;-82
2022/11/29 03:25:04;;;;;;;99.65;21.70;;;8.20;99.90;;;;;;4768008;29;20067;-80
2022/11/29 03:27:42;;;;;;;119.00;20.95;;;8.20;99.90;;;;;;4820716;29;20128;-81
2022/11/29 03:30:12;;;;;;;93.68;19.40;;;8.20;99.90;;;;;;4839265;29;20604;-81
2022/11/29 03:32:59;;;;;;;101.95;19.45;;;8.20;99.90;;;;;;4824467;29;20057;-81
2022/11/29 03:35:46;;;;;;;57.75;18.35;;;8.20;99.90;;;;;;4824360;29;20133;-81
2022/11/29 03:38:41;;;;;;;67.45;18.60;;;8.10;99.90;;;;;;4823567;29;20057;-81
2022/11/29 03:41:19;;;;;;;72.90;19.33;;;8.10;99.90;;;;;;4823863;29;20034;-81
2022/11/29 03:44:13;;;;;;;47.50;17.88;;;8.10;99.90;;;;;;4823289;29;20218;-81
2022/11/29 03:46:58;;;;;;;115.60;19.02;;;8.10;99.90;;;;;;4837776;29;20033;-81
2022/11/29 03:49:36;;;;;;;87.38;18.48;;;8.10;99.90;;;;;;4825604;29;20041;-81
2022/11/29 03:52:20;;;;;;;90.75;20.60;;;8.00;99.90;;;;;;4824614;29;20048;-81
2022/11/29 03:54:59;;;;;;;93.03;18.60;;;8.00;99.90;;;;;;4825208;29;20053;-81
2022/11/29 03:57:32;;;;;;;156.60;21.23;;;8.00;99.90;;;;;;4822876;29;20486;-81
2022/11/29 04:00:08;;;;;;;149.00;23.25;;;8.00;99.90;;;;;;4823392;29;20584;-81
2022/11/29 04:02:49;;;;;;;;;;;8.00;99.90;;;;;;4837886;29;20047;-82
2022/11/29 04:05:27;;;;;;;86.78;17.85;;;8.00;99.90;;;;;;4823937;29;19920;-81
2022/11/29 04:08:01;;;;;;;119.47;20.50;;;7.90;99.90;;;;;;4822655;29;20501;-81
2022/11/29 04:11:00;;;;;;;119.13;19.83;;;8.00;99.90;;;;;;4824382;29;20087;-81
2022/11/29 04:13:51;;;;;;;48.05;18.48;;;8.00;99.90;;;;;;4819217;29;20106;-81
2022/11/29 04:16:25;;;;;;;103.90;19.17;;;8.00;99.90;;;;;;4823342;29;20508;-81
2022/11/29 04:19:29;;;;;;;137.52;23.33;;;8.00;99.90;;;;;;4824995;29;20046;-80
2022/11/29 04:21:58;;;;;;;91.80;19.02;;;7.90;99.90;;;;;;4823709;29;20052;-81
2022/11/29 04:24:29;;;;;;;99.95;20.55;;;7.90;99.90;;;;;;4823384;29;20045;-81
2022/11/29 04:27:06;;;;;;;116.18;19.35;;;7.90;99.90;;;;;;4822436;29;20050;-82
2022/11/29 04:30:16;;;;;;;78.13;17.67;;;7.90;99.90;;;;;;4804221;29;20128;-81
2022/11/29 04:33:03;;;;;;;88.68;18.13;;;7.90;99.90;;;;;;4805437;29;20057;-81
2022/11/29 04:35:53;;;;;;;68.47;17.15;;;8.00;99.90;;;;;;4809664;29;20060;-82
2022/11/29 04:38:45;;;;;;;181.95;21.80;;;7.90;99.90;;;;;;4821674;29;20053;-83
2022/11/29 04:41:35;;;;;;;111.88;17.65;;;7.80;99.90;;;;;;4799349;29;20057;-82
2022/11/29 04:44:14;;;;;;;114.38;20.27;;;7.90;99.90;;;;;;4824944;29;20063;-81
2022/11/29 04:46:48;;;;;;;89.30;19.45;;;7.90;99.90;;;;;;4842088;29;20042;-82
2022/11/29 04:49:35;;;;;;;157.90;18.50;;;7.90;99.90;;;;;;4843716;29;20038;-81
2022/11/29 04:52:19;;;;;;;151.93;21.25;;;7.80;99.90;;;;;;4828911;29;20050;-81
2022/11/29 04:54:48;;;;;;;175.85;23.88;;;7.90;99.90;;;;;;4829484;29;20042;-81
2022/11/29 04:57:41;;;;;;;127.38;19.98;;;7.90;99.90;;;;;;4827909;29;20137;-81
2022/11/29 05:00:10;;;;;;;175.88;21.10;;;7.80;99.90;;;;;;4806318;29;20087;-81
2022/11/29 05:02:59;;;;;;;157.93;18.30;;;7.80;99.90;;;;;;4824981;29;20532;-82
2022/11/29 05:05:30;;;;;;;130.85;18.02;;;7.80;99.90;;;;;;4828450;29;20049;-81
2022/11/29 05:08:04;;;;;;;141.52;19.67;;;7.80;99.90;;;;;;4823128;29;20119;-81
2022/11/29 05:10:45;;;;;;;187.13;21.80;;;7.90;99.90;;;;;;4826416;29;20048;-81
2022/11/29 05:13:35;;;;;;;123.40;16.42;;;7.80;99.90;;;;;;4828060;29;20058;-81
2022/11/29 05:16:50;;;;;;;228.35;22.30;;;7.80;99.90;;;;;;4838766;29;20041;-83
2022/11/29 05:19:55;;;;;;;111.38;18.75;;;7.80;99.90;;;;;;4811737;29;20269;-83
2022/11/29 05:22:39;;;;;;;251.95;21.65;;;7.80;99.90;;;;;;4810856;29;20046;-82
2022/11/29 05:25:14;;;;;;;100.35;17.17;;;7.70;99.90;;;;;;4825165;29;20054;-83
2022/11/29 05:28:16;;;;;;;231.55;20.42;;;7.80;99.90;;;;;;4809902;29;20395;-82
2022/11/29 05:31:20;;;;;;;110.50;16.67;;;7.80;99.90;;;;;;4807473;29;20053;-83
2022/11/29 05:34:08;;;;;;;189.52;20.75;;;7.80;99.90;;;;;;4824244;29;20054;-83
2022/11/29 05:37:00;;;;;;;167.18;19.85;;;7.80;99.90;;;;;;4839498;29;20049;-84
2022/11/29 05:39:36;;;;;;;196.20;21.95;;;7.80;99.90;;;;;;4838782;29;20140;-84
2022/11/29 05:42:28;;;;;;;145.40;18.77;;;7.80;99.90;;;;;;4824075;29;20043;-84
2022/11/29 05:44:59;;;;;;;249.07;22.17;;;7.80;99.90;;;;;;4824899;29;20038;-84
2022/11/29 05:47:35;;;;;;;246.77;22.65;;;7.80;99.90;;;;;;4824355;29;20057;-83
2022/11/29 05:50:15;;;;;;;;;;;7.80;99.90;;;;;;4826797;29;20049;-84
2022/11/29 05:53:07;;;;;;;175.25;18.65;;;7.80;99.90;;;;;;4827127;29;19924;-86
2022/11/29 05:56:04;;;;;;;175.73;19.33;;;7.80;99.90;;;;;;4823426;29;20137;-82
2022/11/29 05:58:46;;;;;;;160.18;19.83;;;7.80;99.90;;;;;;4839570;29;20478;-83
2022/11/29 06:01:57;;;;;;;162.32;19.42;;;7.80;99.90;;;;;;4834767;29;20042;-86
2022/11/29 06:05:03;;;;;;;132.95;19.48;;;7.80;99.90;;;;;;4821807;29;20179;-86
2022/11/29 06:07:54;;;;;;;179.70;20.83;;;7.80;99.90;;;;;;4817652;29;20042;-87
2022/11/29 06:10:59;;;;;;;174.48;19.63;;;7.80;99.90;;;;;;4836719;29;20065;-86
2022/11/29 06:13:49;;;;;;;160.32;17.85;;;7.80;99.90;;;;;;4830888;29;20050;-86
2022/11/29 06:17:14;;;;;;;248.55;23.38;;;7.90;99.90;;;;;;4822964;29;20107;-86
2022/11/29 06:19:40;;;;;;;155.10;20.52;;;7.80;99.90;;;;;;4834117;29;20046;-86
2022/11/29 06:22:25;;;;;;;146.27;18.77;;;7.80;99.90;;;;;;4819469;29;20058;-85
2022/11/29 06:25:19;;;;;;;83.68;19.13;;;7.80;99.90;;;;;;4823455;29;20042;-84
2022/11/29 06:28:21;;;;;;;131.65;20.67;;;7.80;99.90;;;;;;4817804;29;20740;-87
2022/11/29 06:31:28;;;;;;;106.53;17.73;;;7.80;99.90;;;;;;4806553;29;20075;-85
2022/11/29 06:34:15;;;;;;;131.77;20.98;;;7.80;99.90;;;;;;4767555;30;20073;-85
2022/11/29 06:36:55;;;;;;;92.88;18.10;;;7.80;99.90;;;;;;4820737;29;20060;-85
2022/11/29 06:39:22;;;;;;;89.43;17.33;;;7.80;99.90;;;;;;4822247;29;20044;-84
2022/11/29 06:45:29;;;;;;;75.10;17.02;;;7.50;99.90;;;;;;4841970;29;20764;-83
2022/11/29 06:48:01;;;;;;;90.55;16.50;;;7.80;99.90;;;;;;4826379;29;20038;-83
2022/11/29 06:51:02;;;;;;;92.45;16.55;;;7.70;99.90;;;;;;4836120;29;20593;-82
2022/11/29 06:53:38;;;;;;;102.72;19.02;;;7.80;99.90;;;;;;4810255;29;20124;-83
2022/11/29 06:56:49;;;;;;;133.38;19.42;;;7.80;99.90;;;;;;4827443;29;20101;-83
2022/11/29 06:59:33;;;;;;;125.47;21.73;;;7.70;99.90;;;;;;4836958;29;20072;-83
2022/11/29 07:02:19;;;;;;;127.00;19.60;;;7.80;99.90;;;;;;4825568;29;20052;-83
2022/11/29 07:05:13;;;;;;;85.90;19.17;;;7.70;99.90;;;;;;4840421;29;20042;-82
2022/11/29 07:07:40;;;;;;;78.97;18.48;;;7.70;99.90;;;;;;4841975;29;20082;-83
2022/11/29 07:10:12;;;;;;;71.22;17.85;;;7.70;99.90;;;;;;4806999;29;20042;-82
2022/11/29 07:12:38;;;;;;;52.83;15.45;;;7.80;99.90;;;;;;4823159;29;20111;-83
2022/11/29 07:15:04;;;;;;;98.15;18.23;;;7.80;99.90;;;;;;4823668;29;20113;-82
2022/11/29 07:17:45;;;;;;;63.90;16.92;;;7.70;99.90;;;;;;4809854;29;20045;-83
2022/11/29 07:20:31;;;;;;;101.35;18.85;;;7.60;99.90;;;;;;4823119;29;20053;-85
2022/11/29 07:23:26;;;;;;;97.45;18.63;;;7.70;99.90;;;;;;4823144;29;20152;-85
2022/11/29 07:26:16;;;;;;;75.90;17.58;;;7.70;99.90;;;;;;4821281;29;20614;-85
2022/11/29 07:29:07;;;;;;;51.63;18.02;;;6.80;99.90;;;;;;4806686;29;20387;-85
2022/11/29 07:31:45;;;;;;;82.78;19.13;;;7.60;99.90;;;;;;4822464;29;20057;-83
2022/11/29 07:34:10;;;;;;;66.30;17.90;;;7.70;99.90;;;;;;4841379;29;20042;-82
2022/11/29 07:37:09;;;;;;;71.95;17.55;;;7.70;99.90;;;;;;4825194;29;20046;-83
2022/11/29 07:40:04;;;;;;;88.90;18.00;;;7.70;99.90;;;;;;4801591;29;20043;-84
2022/11/29 07:42:48;;;;;;;75.15;18.27;;;7.70;99.90;;;;;;4822718;29;20038;-83
2022/11/29 07:45:27;;;;;;;95.93;18.90;;;7.60;99.90;;;;;;4821908;29;20038;-83
2022/11/29 07:47:53;;;;;;;121.70;20.50;;;7.70;99.90;;;;;;4807503;29;20145;-83
2022/11/29 07:50:19;;;;;;;77.25;19.02;;;7.70;99.90;;;;;;4824790;29;20472;-83
2022/11/29 07:52:46;;;;;;;69.40;16.30;;;7.60;99.90;;;;;;4822771;29;20379;-83
2022/11/29 07:55:17;;;;;;;85.38;17.83;;;7.60;99.90;;;;;;4822462;29;20071;-83
2022/11/29 07:57:43;;;;;;;80.95;17.65;;;7.60;99.90;;;;;;4804106;29;20044;-84
2022/11/29 08:00:09;;;;;;;77.90;17.23;;;7.60;99.90;;;;;;4823263;29;20038;-83
2022/11/29 08:02:35;;;;;;;88.25;19.58;;;7.60;99.90;;;;;;4802124;29;20053;-83
2022/11/29 08:05:01;;;;;;;84.40;17.15;;;7.60;99.90;;;;;;4824444;29;20041;-84
2022/11/29 08:07:26;;;;;;;92.10;18.52;;;7.60;99.90;;;;;;4803441;29;20058;-83
2022/11/29 08:09:52;;;;;;;83.00;18.92;;;7.60;99.90;;;;;;4817299;29;20053;-84
2022/11/29 08:12:19;;;;;;;75.07;18.60;;;7.50;99.90;;;;;;4815353;29;20060;-83
2022/11/29 08:14:44;;;;;;;61.08;18.55;;;7.60;99.90;;;;;;4816946;29;20042;-84
2022/11/29 08:17:10;;;;;;;110.57;22.60;;;7.60;99.90;;;;;;4811288;29;20042;-83
2022/11/29 08:19:35;;;;;;;61.92;17.45;;;7.50;99.90;;;;;;4802464;29;20037;-83
2022/11/29 08:22:01;;;;;;;57.15;16.48;;;7.60;99.90;;;;;;4818200;29;20046;-84
2022/11/29 08:24:27;;;;;;;84.07;19.75;;;7.60;99.90;;;;;;4832558;29;20097;-83
2022/11/29 08:26:53;;;;;;;71.05;19.25;;;7.50;99.90;;;;;;4815463;29;20038;-83
2022/11/29 08:29:18;;;;;;;75.22;18.45;;;7.50;99.90;;;;;;4817844;29;20053;-83
2022/11/29 08:31:44;;;;;;;74.75;16.98;;;7.60;99.90;;;;;;4831098;29;20049;-83
2022/11/29 08:34:10;;;;;;;72.88;19.55;;;7.50;99.90;;;;;;4822213;29;20085;-83
2022/11/29 08:36:37;;;;;;;65.03;19.52;;;7.60;99.90;;;;;;4803879;29;20082;-83
2022/11/29 08:39:03;;;;;;;64.13;17.42;;;7.60;99.90;;;;;;4803398;29;20763;-83
2022/11/29 08:41:29;;;;;;;60.22;17.67;;;7.60;99.90;;;;;;4804059;29;20038;-84
2022/11/29 08:43:55;;;;;;;49.80;17.30;;;7.60;99.90;;;;;;4820808;29;20447;-83
2022/11/29 08:46:21;;;;;;;55.58;19.75;;;7.60;99.90;;;;;;4821994;29;20053;-83
2022/11/29 08:48:47;;;;;;;46.65;16.48;;;7.60;99.90;;;;;;4801168;29;20101;-84
2022/11/29 08:51:13;;;;;;;36.75;16.55;;;7.60;99.90;;;;;;4822169;29;20092;-83
2022/11/29 08:53:42;;;;;;;37.00;16.52;;;7.60;99.90;;;;;;4821728;29;20398;-83
2022/11/29 08:56:10;;;;;;;40.35;16.13;;;7.60;99.90;;;;;;4836786;29;20093;-84
2022/11/29 08:58:37;;;;;;;31.73;15.13;;;7.70;99.90;;;;;;4802433;29;20441;-83
2022/11/29 09:01:03;;;;;;;32.92;16.35;;;7.70;99.90;;;;;;4802779;29;20042;-83
2022/11/29 09:06:15;;;;;;;;;;;7.70;99.90;;;;;;4810478;29;21532;-83
2022/11/29 09:08:42;;;;;;;37.95;16.20;;;7.70;99.90;;;;;;4809037;29;19925;-84
2022/11/29 09:11:17;;;;;;;45.97;18.30;;;7.70;99.90;;;;;;4792081;29;20085;-84
2022/11/29 09:13:46;;;;;;;34.47;14.85;;;7.80;99.90;;;;;;4803947;29;20042;-84
2022/11/29 09:16:14;;;;;;;40.05;15.85;;;7.80;99.90;;;;;;4797515;29;20045;-83
2022/11/29 09:18:40;;;;;;;30.38;14.88;;;7.80;99.90;;;;;;4795421;29;20057;-84
2022/11/29 09:21:08;;;;;;;31.55;14.80;;;7.80;99.90;;;;;;4797786;29;20265;-84
2022/11/29 09:23:37;;;;;;;27.73;14.35;;;7.80;99.90;;;;;;4781757;29;20244;-84
2022/11/29 09:26:04;;;;;;;33.45;14.80;;;7.80;99.90;;;;;;4782708;29;20120;-84
2022/11/29 09:28:30;;;;;;;26.08;13.38;;;7.60;99.90;;;;;;4813344;29;20509;-84
2022/11/29 09:31:03;;;;;;;33.00;15.60;;;7.90;99.90;;;;;;4802175;29;20065;-83
2022/11/29 09:33:29;;;;;;;23.40;12.95;;;7.90;99.90;;;;;;4785501;29;20045;-83
2022/11/29 09:35:59;;;;;;;29.92;13.57;;;8.00;99.90;;;;;;4803245;29;20053;-83
2022/11/29 09:38:24;;;;;;;29.70;13.55;;;8.00;99.90;;;;;;4785377;29;20053;-83
2022/11/29 09:40:54;;;;;;;28.38;14.23;;;8.00;99.90;;;;;;4802264;29;20042;-84
2022/11/29 09:43:37;;;;;;;27.95;13.68;;;8.20;99.90;;;;;;4820000;29;20053;-83
2022/11/29 09:46:22;;;;;;;29.25;13.65;;;8.20;99.90;;;;;;4824604;29;20062;-83
2022/11/29 09:49:06;;;;;;;29.80;13.23;;;7.50;99.90;;;;;;4824856;29;20046;-83
2022/11/29 09:52:03;;;;;;;24.83;11.77;;;8.20;99.90;;;;;;4811158;29;20127;-83
2022/11/29 09:55:24;;;;;;;22.60;12.40;;;8.20;99.90;;;;;;4789253;29;20055;-83
2022/11/29 09:58:42;;;;;;;25.27;12.18;;;8.20;99.90;;;;;;4800920;29;20081;-83
2022/11/29 10:01:16;;;;;;;24.25;12.48;;;8.20;99.90;;;;;;4822327;29;20050;-83
2022/11/29 10:03:46;;;;;;;20.40;11.43;;;8.20;99.90;;;;;;4816303;29;20045;-83
2022/11/29 10:06:37;;;;;;;17.25;10.70;;;8.70;99.90;;;;;;4828452;29;20086;-83
2022/11/29 10:09:40;;;;;;;21.42;12.00;;;8.30;99.90;;;;;;4821721;29;20034;-84
2022/11/29 10:12:48;;;;;;;18.70;11.00;;;8.20;99.90;;;;;;4840583;29;20113;-83
2022/11/29 10:15:50;;;;;;;22.63;11.63;;;8.20;99.90;;;;;;4824806;29;20417;-83
2022/11/29 10:18:33;;;;;;;21.40;10.90;;;9.40;99.90;;;;;;4835833;29;20050;-83
2022/11/29 10:21:12;;;;;;;20.73;11.43;;;9.30;99.90;;;;;;4804613;29;20034;-83
2022/11/29 10:23:51;;;;;;;22.85;10.60;;;8.30;99.90;;;;;;4837736;29;20207;-83
2022/11/29 10:30:12;;;;;;;17.95;9.57;;;8.20;99.90;;;;;;4839641;29;20094;-83
2022/11/29 10:36:43;;;;;;;20.92;9.40;;;8.40;99.90;;;;;;4841588;29;20045;-84
2022/11/29 10:39:20;;;;;;;21.92;9.57;;;8.60;99.90;;;;;;4824537;29;20850;-83
2022/11/29 10:41:55;;;;;;;17.58;9.13;;;8.50;99.90;;;;;;4823262;29;20050;-83
2022/11/29 10:44:30;;;;;;;16.88;9.27;;;8.50;99.90;;;;;;4834915;29;20049;-83
2022/11/29 10:47:04;;;;;;;15.98;9.05;;;8.60;99.90;;;;;;4841802;29;20042;-83
2022/11/29 10:49:43;;;;;;;15.88;9.68;;;8.60;99.90;;;;;;4810936;29;20465;-84
2022/11/29 10:52:19;;;;;;;17.92;8.32;;;8.50;99.90;;;;;;4824505;29;20137;-83
2022/11/29 10:54:47;;;;;;;12.65;7.93;;;8.60;99.90;;;;;;4825825;29;20053;-83
2022/11/29 10:57:18;;;;;;;17.55;9.02;;;8.60;99.90;;;;;;4826634;29;20516;-83
2022/11/29 11:00:08;;;;;;;18.83;9.27;;;8.70;99.90;;;;;;4822182;29;20121;-83
2022/11/29 11:02:48;;;;;;;16.48;7.88;;;8.70;99.90;;;;;;4836986;29;20096;-83
2022/11/29 11:09:36;;;;;;;16.55;7.40;;;8.90;99.90;;;;;;4838849;29;20405;-83
2022/11/29 11:13:01;;;;;;;16.45;7.47;;;9.00;99.90;;;;;;4816942;29;20108;-83
2022/11/29 11:15:46;;;;;;;13.68;6.70;;;8.70;99.90;;;;;;4816254;29;20118;-82
2022/11/29 11:18:36;;;;;;;17.70;6.43;;;9.10;99.90;;;;;;4789293;29;20062;-83
2022/11/29 11:21:30;;;;;;;18.40;6.65;;;9.20;99.90;;;;;;4806685;29;20064;-83
2022/11/29 11:24:07;;;;;;;25.27;8.65;;;9.30;99.90;;;;;;4784455;29;20545;-83
2022/11/29 11:26:51;;;;;;;15.52;7.20;;;9.50;99.90;;;;;;4805100;29;20105;-83
2022/11/29 11:29:51;;;;;;;;;;;9.80;99.90;;;;;;4817606;29;20093;-83
2022/11/29 11:32:26;;;;;;;15.88;6.78;;;9.40;99.90;;;;;;4812056;29;20394;-83
2022/11/29 11:35:00;;;;;;;14.45;5.95;;;9.50;99.90;;;;;;4821578;29;20418;-83
2022/11/29 11:37:34;;;;;;;18.42;7.32;;;9.50;99.90;;;;;;4803851;29;20042;-83
2022/11/29 11:40:24;;;;;;;15.90;7.53;;;9.60;99.90;;;;;;4802179;29;20482;-82
2022/11/29 11:43:00;;;;;;;16.30;6.88;;;9.60;99.90;;;;;;4821675;29;20042;-85
2022/11/29 11:45:33;;;;;;;20.05;6.45;;;9.50;99.90;;;;;;4816724;29;20129;-85
2022/11/29 11:48:04;;;;;;;15.15;6.35;;;9.60;99.90;;;;;;4831395;29;20141;-85
2022/11/29 11:50:57;;;;;;;16.05;6.75;;;9.60;99.90;;;;;;4818936;29;20468;-85
2022/11/29 11:53:34;;;;;;;25.77;7.47;;;9.70;99.90;;;;;;4804054;29;20061;-84
2022/11/29 11:56:06;;;;;;;17.50;6.32;;;9.60;99.90;;;;;;4819734;29;20037;-84
2022/11/29 11:58:31;;;;;;;27.42;7.63;;;9.70;99.90;;;;;;4829283;29;20050;-85
2022/11/29 12:01:39;;;;;;;14.85;6.45;;;9.70;99.90;;;;;;4818590;29;20049;-84
2022/11/29 12:04:23;;;;;;;14.60;6.35;;;9.80;99.90;;;;;;4820703;29;20058;-83
2022/11/29 12:06:58;;;;;;;18.50;7.85;;;9.80;99.90;;;;;;4820467;29;20133;-84
2022/11/29 12:09:41;;;;;;;20.27;7.75;;;9.80;99.90;;;;;;4816217;29;20041;-84
2022/11/29 12:12:11;;;;;;;21.95;8.23;;;9.80;99.90;;;;;;4834123;29;20042;-83
2022/11/29 12:14:52;;;;;;;21.08;8.65;;;9.80;99.90;;;;;;4818125;29;20501;-83
2022/11/29 12:17:57;;;;;;;25.42;7.85;;;9.80;99.90;;;;;;4819243;29;20041;-83
2022/11/29 12:20:47;;;;;;;24.95;8.27;;;9.80;99.90;;;;;;4826420;29;20492;-83
2022/11/29 12:23:13;;;;;;;20.75;7.82;;;9.80;99.90;;;;;;4818219;29;20054;-83
2022/11/29 12:25:48;;;;;;;22.77;8.15;;;9.80;99.90;;;;;;4834007;29;20069;-83
2022/11/29 12:28:16;;;;;;;31.67;8.60;;;9.80;99.90;;;;;;4817484;29;20046;-83
2022/11/29 12:31:00;;;;;;;21.83;8.15;;;9.80;99.90;;;;;;4802169;29;20069;-83
2022/11/29 12:33:38;;;;;;;19.65;8.02;;;9.80;99.90;;;;;;4832698;29;20653;-83
2022/11/29 12:36:25;;;;;;;23.13;9.65;;;9.80;99.90;;;;;;4831514;29;20530;-84
2022/11/29 12:39:17;;;;;;;24.98;8.45;;;9.70;99.90;;;;;;4832595;29;20422;-84
2022/11/29 12:42:20;;;;;;;26.80;8.60;;;9.70;99.90;;;;;;4801646;29;20056;-83
2022/11/29 12:44:55;;;;;;;27.00;9.00;;;9.70;99.90;;;;;;4829619;29;20121;-83
2022/11/29 12:47:31;;;;;;;23.13;9.03;;;9.70;99.90;;;;;;4818003;29;20437;-83
2022/11/29 12:50:22;;;;;;;33.17;9.95;;;9.60;99.90;;;;;;4819986;29;20042;-83
2022/11/29 12:53:15;;;;;;;28.70;9.70;;;9.70;99.90;;;;;;4830722;29;20781;-83
2022/11/29 12:56:13;;;;;;;28.27;9.57;;;9.70;99.90;;;;;;4819620;29;21152;-84
2022/11/29 12:58:45;;;;;;;24.30;9.57;;;9.70;99.90;;;;;;4816536;29;20050;-84
2022/11/29 13:01:29;;;;;;;24.58;9.65;;;9.70;99.90;;;;;;4816871;29;20057;-84
2022/11/29 13:04:26;;;;;;;23.70;9.43;;;9.70;99.90;;;;;;4815543;29;20050;-83
2022/11/29 13:06:54;;;;;;;;;;;9.70;99.90;;;;;;4799020;29;20062;-84
2022/11/29 13:09:38;;;;;;;22.15;9.38;;;9.70;99.90;;;;;;4838225;29;19999;-84
2022/11/29 13:12:31;;;;;;;22.88;9.50;;;9.80;99.90;;;;;;4823150;29;20055;-83
2022/11/29 13:15:01;;;;;;;22.90;9.55;;;9.80;99.90;;;;;;4826070;29;20057;-83
2022/11/29 13:17:36;;;;;;;26.15;10.45;;;9.80;99.90;;;;;;4823144;29;20049;-83
2022/11/29 13:20:45;;;;;;;27.48;10.45;;;9.90;99.90;;;;;;4821628;29;20046;-83
2022/11/29 13:23:31;;;;;;;24.05;10.32;;;9.90;99.90;;;;;;4782523;29;20055;-83
2022/11/29 13:26:00;;;;;;;28.50;11.00;;;9.90;99.90;;;;;;4786911;29;20046;-83
2022/11/29 13:28:32;;;;;;;24.20;10.20;;;9.80;99.90;;;;;;4794881;29;20066;-83
2022/11/29 13:31:05;;;;;;;21.30;9.27;;;9.90;99.90;;;;;;4837477;29;20560;-84
2022/11/29 13:33:45;;;;;;;23.52;10.70;;;9.90;99.90;;;;;;4820128;29;20056;-83
2022/11/29 13:36:32;;;;;;;28.60;11.00;;;9.90;99.90;;;;;;4833588;29;20061;-83
2022/11/29 13:39:10;;;;;;;24.83;10.32;;;10.00;99.90;;;;;;4823108;29;20048;-83
2022/11/29 13:41:53;;;;;;;21.73;9.57;;;10.00;99.90;;;;;;4824332;29;20050;-84
2022/11/29 13:44:31;;;;;;;21.05;8.98;;;10.10;99.90;;;;;;4820442;29;20038;-84
2022/11/29 13:47:12;;;;;;;18.58;9.52;;;10.10;99.90;;;;;;4822380;29;20133;-84
2022/11/29 13:49:57;;;;;;;20.27;9.88;;;10.10;99.90;;;;;;4821297;29;20112;-84
2022/11/29 13:52:45;;;;;;;22.55;9.02;;;10.10;99.90;;;;;;4820799;29;20042;-84
2022/11/29 13:55:10;;;;;;;18.20;8.45;;;10.10;99.90;;;;;;4805307;29;20048;-83
2022/11/29 13:58:07;;;;;;;25.35;9.85;;;10.00;99.90;;;;;;4808654;29;20132;-84